sensor_id;sensor_type;location;lat;lon;timestamp;temperature;humidity
36292;DHT22;22327;51.208;6.418;2023-09-07T00:01:28;22.40;95.10
36292;DHT22;22327;51.208;6.418;2023-09-07T00:04:28;22.40;94.90
36292;DHT22;22327;51.208;6.418;2023-09-07T00:07:29;22.50;94.90
36292;DHT22;22327;51.208;6.418;2023-09-07T00:10:29;22.50;94.90
36292;DHT22;22327;51.208;6.418;2023-09-07T00:13:30;22.50;94.90
36292;DHT22;22327;51.208;6.418;2023-09-07T00:16:34;22.50;94.80
36292;DHT22;22327;51.208;6.418;2023-09-07T00:19:35;22.50;94.80
36292;DHT22;22327;51.208;6.418;2023-09-07T00:22:37;22.40;94.80
36292;DHT22;22327;51.208;6.418;2023-09-07T00:25:38;22.40;94.90
36292;DHT22;22327;51.208;6.418;2023-09-07T00:28:38;22.50;95.00
36292;DHT22;22327;51.208;6.418;2023-09-07T00:31:39;22.40;95.00
36292;DHT22;22327;51.208;6.418;2023-09-07T00:34:41;22.40;95.00
36292;DHT22;22327;51.208;6.418;2023-09-07T00:37:43;22.40;94.90
36292;DHT22;22327;51.208;6.418;2023-09-07T00:40:44;22.40;95.00
36292;DHT22;22327;51.208;6.418;2023-09-07T00:43:45;22.40;95.00
36292;DHT22;22327;51.208;6.418;2023-09-07T00:46:46;22.30;95.10
36292;DHT22;22327;51.208;6.418;2023-09-07T00:49:46;22.30;95.20
36292;DHT22;22327;51.208;6.418;2023-09-07T00:52:47;22.30;95.20
36292;DHT22;22327;51.208;6.418;2023-09-07T00:55:48;22.30;95.30
36292;DHT22;22327;51.208;6.418;2023-09-07T00:58:49;22.30;95.40
36292;DHT22;22327;51.208;6.418;2023-09-07T01:01:49;22.30;95.40
36292;DHT22;22327;51.208;6.418;2023-09-07T01:04:53;22.20;95.50
36292;DHT22;22327;51.208;6.418;2023-09-07T01:08:21;22.20;95.60
36292;DHT22;22327;51.208;6.418;2023-09-07T01:11:19;22.10;95.60
36292;DHT22;22327;51.208;6.418;2023-09-07T01:14:26;22.00;95.80
36292;DHT22;22327;51.208;6.418;2023-09-07T01:17:28;22.00;95.80
36292;DHT22;22327;51.208;6.418;2023-09-07T01:20:29;22.00;95.90
36292;DHT22;22327;51.208;6.418;2023-09-07T01:23:31;21.90;96.00
36292;DHT22;22327;51.208;6.418;2023-09-07T01:26:32;21.90;96.00
36292;DHT22;22327;51.208;6.418;2023-09-07T01:29:32;21.80;96.10
36292;DHT22;22327;51.208;6.418;2023-09-07T01:32:34;21.80;96.10
36292;DHT22;22327;51.208;6.418;2023-09-07T01:35:35;21.80;96.20
36292;DHT22;22327;51.208;6.418;2023-09-07T01:38:36;21.70;96.40
36292;DHT22;22327;51.208;6.418;2023-09-07T01:41:37;21.70;96.50
36292;DHT22;22327;51.208;6.418;2023-09-07T01:44:37;21.60;96.70
36292;DHT22;22327;51.208;6.418;2023-09-07T01:47:38;21.60;96.70
36292;DHT22;22327;51.208;6.418;2023-09-07T01:50:39;21.50;96.80
36292;DHT22;22327;51.208;6.418;2023-09-07T01:53:39;21.50;96.90
36292;DHT22;22327;51.208;6.418;2023-09-07T01:56:40;21.40;97.00
36292;DHT22;22327;51.208;6.418;2023-09-07T01:59:41;21.40;97.10
36292;DHT22;22327;51.208;6.418;2023-09-07T02:02:42;21.30;97.20
36292;DHT22;22327;51.208;6.418;2023-09-07T02:05:45;21.30;97.20
36292;DHT22;22327;51.208;6.418;2023-09-07T02:08:46;21.30;97.30
36292;DHT22;22327;51.208;6.418;2023-09-07T02:11:47;21.30;97.40
36292;DHT22;22327;51.208;6.418;2023-09-07T02:14:47;21.30;97.40
36292;DHT22;22327;51.208;6.418;2023-09-07T02:17:48;21.30;97.30
36292;DHT22;22327;51.208;6.418;2023-09-07T02:20:48;21.30;97.30
36292;DHT22;22327;51.208;6.418;2023-09-07T02:23:49;21.30;97.20
36292;DHT22;22327;51.208;6.418;2023-09-07T02:26:49;21.30;97.20
36292;DHT22;22327;51.208;6.418;2023-09-07T02:29:50;21.30;97.20
36292;DHT22;22327;51.208;6.418;2023-09-07T02:32:51;21.30;97.10
36292;DHT22;22327;51.208;6.418;2023-09-07T02:35:51;21.30;97.10
36292;DHT22;22327;51.208;6.418;2023-09-07T02:38:52;21.30;97.10
36292;DHT22;22327;51.208;6.418;2023-09-07T02:41:52;21.20;97.10
36292;DHT22;22327;51.208;6.418;2023-09-07T02:44:53;21.30;97.10
36292;DHT22;22327;51.208;6.418;2023-09-07T02:47:53;21.30;97.10
36292;DHT22;22327;51.208;6.418;2023-09-07T02:50:54;21.20;97.00
36292;DHT22;22327;51.208;6.418;2023-09-07T02:53:56;21.30;97.00
36292;DHT22;22327;51.208;6.418;2023-09-07T02:56:56;21.20;96.90
36292;DHT22;22327;51.208;6.418;2023-09-07T02:59:57;21.20;96.90
36292;DHT22;22327;51.208;6.418;2023-09-07T03:02:57;21.30;97.00
36292;DHT22;22327;51.208;6.418;2023-09-07T03:06:10;21.20;96.90
36292;DHT22;22327;51.208;6.418;2023-09-07T03:09:12;21.20;96.90
36292;DHT22;22327;51.208;6.418;2023-09-07T03:12:12;21.20;97.00
36292;DHT22;22327;51.208;6.418;2023-09-07T03:15:13;21.20;97.00
36292;DHT22;22327;51.208;6.418;2023-09-07T03:18:13;21.20;97.00
36292;DHT22;22327;51.208;6.418;2023-09-07T03:21:14;21.20;97.00
36292;DHT22;22327;51.208;6.418;2023-09-07T03:24:14;21.20;96.90
36292;DHT22;22327;51.208;6.418;2023-09-07T03:27:15;21.10;96.90
36292;DHT22;22327;51.208;6.418;2023-09-07T03:30:16;21.20;96.90
36292;DHT22;22327;51.208;6.418;2023-09-07T03:33:17;21.10;96.90
36292;DHT22;22327;51.208;6.418;2023-09-07T03:36:17;21.10;96.90
36292;DHT22;22327;51.208;6.418;2023-09-07T03:39:18;21.10;96.90
36292;DHT22;22327;51.208;6.418;2023-09-07T03:42:19;21.00;96.90
36292;DHT22;22327;51.208;6.418;2023-09-07T03:45:19;21.00;96.90
36292;DHT22;22327;51.208;6.418;2023-09-07T03:48:20;21.00;96.90
36292;DHT22;22327;51.208;6.418;2023-09-07T03:51:21;21.00;96.90
36292;DHT22;22327;51.208;6.418;2023-09-07T03:54:21;21.00;96.80
36292;DHT22;22327;51.208;6.418;2023-09-07T03:57:23;21.00;96.80
36292;DHT22;22327;51.208;6.418;2023-09-07T04:00:23;21.00;96.80
36292;DHT22;22327;51.208;6.418;2023-09-07T04:03:24;21.00;96.80
36292;DHT22;22327;51.208;6.418;2023-09-07T04:06:24;21.00;96.70
36292;DHT22;22327;51.208;6.418;2023-09-07T04:09:25;21.00;96.70
36292;DHT22;22327;51.208;6.418;2023-09-07T04:12:25;21.00;96.70
36292;DHT22;22327;51.208;6.418;2023-09-07T04:15:26;21.00;96.60
36292;DHT22;22327;51.208;6.418;2023-09-07T04:18:27;21.00;96.60
36292;DHT22;22327;51.208;6.418;2023-09-07T04:21:27;21.00;96.50
36292;DHT22;22327;51.208;6.418;2023-09-07T04:24:28;21.00;96.40
36292;DHT22;22327;51.208;6.418;2023-09-07T04:27:28;21.00;96.30
36292;DHT22;22327;51.208;6.418;2023-09-07T04:30:29;21.00;96.30
36292;DHT22;22327;51.208;6.418;2023-09-07T04:33:30;21.00;96.30
36292;DHT22;22327;51.208;6.418;2023-09-07T04:36:31;21.00;96.30
36292;DHT22;22327;51.208;6.418;2023-09-07T04:39:31;21.00;96.30
36292;DHT22;22327;51.208;6.418;2023-09-07T04:42:32;21.00;96.20
36292;DHT22;22327;51.208;6.418;2023-09-07T04:45:33;21.00;96.20
36292;DHT22;22327;51.208;6.418;2023-09-07T04:48:33;21.00;96.10
36292;DHT22;22327;51.208;6.418;2023-09-07T04:51:36;20.90;96.10
36292;DHT22;22327;51.208;6.418;2023-09-07T04:54:37;20.90;96.10
36292;DHT22;22327;51.208;6.418;2023-09-07T04:57:38;21.00;96.10
36292;DHT22;22327;51.208;6.418;2023-09-07T05:00:38;21.00;96.00
36292;DHT22;22327;51.208;6.418;2023-09-07T05:03:39;21.00;95.90
36292;DHT22;22327;51.208;6.418;2023-09-07T05:06:40;21.00;95.80
36292;DHT22;22327;51.208;6.418;2023-09-07T05:09:42;21.00;95.70
36292;DHT22;22327;51.208;6.418;2023-09-07T05:12:45;21.00;95.90
36292;DHT22;22327;51.208;6.418;2023-09-07T05:15:48;21.10;95.70
36292;DHT22;22327;51.208;6.418;2023-09-07T05:18:49;21.30;95.60
36292;DHT22;22327;51.208;6.418;2023-09-07T05:21:49;21.40;95.40
36292;DHT22;22327;51.208;6.418;2023-09-07T05:24:50;21.60;95.50
36292;DHT22;22327;51.208;6.418;2023-09-07T05:27:51;22.00;95.30
36292;DHT22;22327;51.208;6.418;2023-09-07T05:30:51;22.50;94.50
36292;DHT22;22327;51.208;6.418;2023-09-07T05:33:52;23.10;93.40
36292;DHT22;22327;51.208;6.418;2023-09-07T05:36:52;23.60;92.20
36292;DHT22;22327;51.208;6.418;2023-09-07T05:39:53;23.90;91.30
36292;DHT22;22327;51.208;6.418;2023-09-07T05:42:53;24.30;90.60
36292;DHT22;22327;51.208;6.418;2023-09-07T05:45:54;24.70;90.10
36292;DHT22;22327;51.208;6.418;2023-09-07T05:48:54;25.20;87.50
36292;DHT22;22327;51.208;6.418;2023-09-07T05:51:55;25.40;85.80
36292;DHT22;22327;51.208;6.418;2023-09-07T05:54:56;25.40;84.50
36292;DHT22;22327;51.208;6.418;2023-09-07T05:57:57;25.30;84.80
36292;DHT22;22327;51.208;6.418;2023-09-07T06:00:58;25.50;83.70
36292;DHT22;22327;51.208;6.418;2023-09-07T06:03:58;25.50;82.50
36292;DHT22;22327;51.208;6.418;2023-09-07T06:06:59;25.60;81.90
36292;DHT22;22327;51.208;6.418;2023-09-07T06:10:00;25.80;82.70
36292;DHT22;22327;51.208;6.418;2023-09-07T06:13:00;26.20;79.50
36292;DHT22;22327;51.208;6.418;2023-09-07T06:16:01;26.40;77.80
36292;DHT22;22327;51.208;6.418;2023-09-07T06:19:02;26.50;76.80
36292;DHT22;22327;51.208;6.418;2023-09-07T06:22:02;26.60;76.80
36292;DHT22;22327;51.208;6.418;2023-09-07T06:28:04;27.60;74.70
36292;DHT22;22327;51.208;6.418;2023-09-07T06:31:05;28.20;71.30
36292;DHT22;22327;51.208;6.418;2023-09-07T06:34:05;28.60;66.80
36292;DHT22;22327;51.208;6.418;2023-09-07T06:37:06;28.90;65.30
36292;DHT22;22327;51.208;6.418;2023-09-07T06:40:08;29.10;63.60
36292;DHT22;22327;51.208;6.418;2023-09-07T06:43:09;29.60;63.30
36292;DHT22;22327;51.208;6.418;2023-09-07T06:46:10;30.10;59.80
36292;DHT22;22327;51.208;6.418;2023-09-07T06:49:10;30.60;59.40
36292;DHT22;22327;51.208;6.418;2023-09-07T06:52:11;30.90;57.00
36292;DHT22;22327;51.208;6.418;2023-09-07T06:55:11;30.70;56.00
36292;DHT22;22327;51.208;6.418;2023-09-07T06:58:12;30.40;56.40
36292;DHT22;22327;51.208;6.418;2023-09-07T07:01:12;29.90;56.50
36292;DHT22;22327;51.208;6.418;2023-09-07T07:04:13;29.40;57.60
36292;DHT22;22327;51.208;6.418;2023-09-07T07:07:13;29.00;58.60
36292;DHT22;22327;51.208;6.418;2023-09-07T07:10:14;28.50;59.70
36292;DHT22;22327;51.208;6.418;2023-09-07T07:13:14;28.00;61.30
36292;DHT22;22327;51.208;6.418;2023-09-07T07:16:16;27.60;62.90
36292;DHT22;22327;51.208;6.418;2023-09-07T07:19:17;27.40;63.90
36292;DHT22;22327;51.208;6.418;2023-09-07T07:22:17;27.10;65.20
36292;DHT22;22327;51.208;6.418;2023-09-07T07:25:18;26.90;65.50
36292;DHT22;22327;51.208;6.418;2023-09-07T07:28:19;26.80;67.00
36292;DHT22;22327;51.208;6.418;2023-09-07T07:31:19;27.40;65.00
36292;DHT22;22327;51.208;6.418;2023-09-07T07:34:20;28.40;64.30
36292;DHT22;22327;51.208;6.418;2023-09-07T07:37:20;29.30;60.30
36292;DHT22;22327;51.208;6.418;2023-09-07T07:40:21;30.00;57.90
36292;DHT22;22327;51.208;6.418;2023-09-07T07:43:21;30.70;57.20
36292;DHT22;22327;51.208;6.418;2023-09-07T07:46:22;31.30;55.60
36292;DHT22;22327;51.208;6.418;2023-09-07T07:49:23;31.50;53.80
36292;DHT22;22327;51.208;6.418;2023-09-07T07:52:23;31.50;53.30
36292;DHT22;22327;51.208;6.418;2023-09-07T07:55:24;31.40;53.60
36292;DHT22;22327;51.208;6.418;2023-09-07T07:58:24;31.60;53.20
36292;DHT22;22327;51.208;6.418;2023-09-07T08:01:25;32.10;52.50
36292;DHT22;22327;51.208;6.418;2023-09-07T08:04:26;32.90;52.20
36292;DHT22;22327;51.208;6.418;2023-09-07T08:07:27;33.90;51.30
36292;DHT22;22327;51.208;6.418;2023-09-07T08:10:28;34.90;48.40
36292;DHT22;22327;51.208;6.418;2023-09-07T08:13:29;35.70;46.80
36292;DHT22;22327;51.208;6.418;2023-09-07T08:16:29;36.30;44.40
36292;DHT22;22327;51.208;6.418;2023-09-07T08:19:30;36.80;43.70
36292;DHT22;22327;51.208;6.418;2023-09-07T08:22:32;37.40;42.60
36292;DHT22;22327;51.208;6.418;2023-09-07T08:25:35;37.90;41.50
36292;DHT22;22327;51.208;6.418;2023-09-07T08:28:35;37.60;39.60
36292;DHT22;22327;51.208;6.418;2023-09-07T08:31:37;37.20;40.30
36292;DHT22;22327;51.208;6.418;2023-09-07T08:34:38;37.20;40.60
36292;DHT22;22327;51.208;6.418;2023-09-07T08:37:42;37.30;40.60
36292;DHT22;22327;51.208;6.418;2023-09-07T08:40:42;37.60;40.20
36292;DHT22;22327;51.208;6.418;2023-09-07T08:43:45;38.00;39.40
36292;DHT22;22327;51.208;6.418;2023-09-07T08:46:48;38.40;38.60
36292;DHT22;22327;51.208;6.418;2023-09-07T08:49:49;38.30;37.80
36292;DHT22;22327;51.208;6.418;2023-09-07T08:52:52;38.00;38.00
36292;DHT22;22327;51.208;6.418;2023-09-07T08:55:53;37.70;39.40
36292;DHT22;22327;51.208;6.418;2023-09-07T08:58:54;38.20;38.50
36292;DHT22;22327;51.208;6.418;2023-09-07T09:01:57;39.00;37.60
36292;DHT22;22327;51.208;6.418;2023-09-07T09:05:01;40.00;37.40
36292;DHT22;22327;51.208;6.418;2023-09-07T09:08:05;40.40;35.60
36292;DHT22;22327;51.208;6.418;2023-09-07T09:11:06;40.50;34.70
36292;DHT22;22327;51.208;6.418;2023-09-07T09:14:07;40.20;34.70
36292;DHT22;22327;51.208;6.418;2023-09-07T09:17:14;40.30;35.10
36292;DHT22;22327;51.208;6.418;2023-09-07T09:20:25;40.30;34.40
36292;DHT22;22327;51.208;6.418;2023-09-07T09:23:33;40.80;33.80
36292;DHT22;22327;51.208;6.418;2023-09-07T09:26:37;41.00;33.60
36292;DHT22;22327;51.208;6.418;2023-09-07T09:29:37;41.40;33.40
36292;DHT22;22327;51.208;6.418;2023-09-07T09:32:39;41.20;32.90
36292;DHT22;22327;51.208;6.418;2023-09-07T09:35:39;40.90;33.50
36292;DHT22;22327;51.208;6.418;2023-09-07T09:38:40;40.70;33.70
36292;DHT22;22327;51.208;6.418;2023-09-07T09:41:46;40.20;33.80
36292;DHT22;22327;51.208;6.418;2023-09-07T09:44:49;39.80;34.10
36292;DHT22;22327;51.208;6.418;2023-09-07T09:47:52;39.00;34.90
36292;DHT22;22327;51.208;6.418;2023-09-07T09:50:54;38.00;36.70
36292;DHT22;22327;51.208;6.418;2023-09-07T09:53:56;37.10;37.60
36292;DHT22;22327;51.208;6.418;2023-09-07T09:56:56;36.10;38.90
36292;DHT22;22327;51.208;6.418;2023-09-07T09:59:58;35.00;40.50
36292;DHT22;22327;51.208;6.418;2023-09-07T10:03:15;34.30;42.10
36292;DHT22;22327;51.208;6.418;2023-09-07T10:06:29;33.60;44.40
36292;DHT22;22327;51.208;6.418;2023-09-07T10:09:32;33.00;45.30
36292;DHT22;22327;51.208;6.418;2023-09-07T10:12:42;32.30;46.60
36292;DHT22;22327;51.208;6.418;2023-09-07T10:15:43;31.90;48.00
36292;DHT22;22327;51.208;6.418;2023-09-07T10:18:44;31.30;48.80
36292;DHT22;22327;51.208;6.418;2023-09-07T10:21:45;31.00;49.40
36292;DHT22;22327;51.208;6.418;2023-09-07T10:24:57;30.70;50.20
36292;DHT22;22327;51.208;6.418;2023-09-07T10:27:58;30.50;51.00
36292;DHT22;22327;51.208;6.418;2023-09-07T10:31:07;30.40;51.50
36292;DHT22;22327;51.208;6.418;2023-09-07T10:34:13;30.30;51.70
36292;DHT22;22327;51.208;6.418;2023-09-07T10:37:14;30.10;51.90
36292;DHT22;22327;51.208;6.418;2023-09-07T10:40:20;30.00;52.30
36292;DHT22;22327;51.208;6.418;2023-09-07T10:43:21;29.90;53.10
36292;DHT22;22327;51.208;6.418;2023-09-07T10:46:23;29.90;53.30
36292;DHT22;22327;51.208;6.418;2023-09-07T10:49:24;30.00;53.40
36292;DHT22;22327;51.208;6.418;2023-09-07T10:52:25;30.10;53.10
36292;DHT22;22327;51.208;6.418;2023-09-07T10:55:25;30.20;53.70
36292;DHT22;22327;51.208;6.418;2023-09-07T10:58:30;30.30;52.80
36292;DHT22;22327;51.208;6.418;2023-09-07T11:01:31;30.30;52.80
36292;DHT22;22327;51.208;6.418;2023-09-07T11:04:32;30.30;53.10
36292;DHT22;22327;51.208;6.418;2023-09-07T11:07:33;30.30;53.40
36292;DHT22;22327;51.208;6.418;2023-09-07T11:10:34;30.30;53.80
36292;DHT22;22327;51.208;6.418;2023-09-07T11:13:36;30.40;53.30
36292;DHT22;22327;51.208;6.418;2023-09-07T11:16:37;30.40;53.60
36292;DHT22;22327;51.208;6.418;2023-09-07T11:19:37;30.40;53.70
36292;DHT22;22327;51.208;6.418;2023-09-07T11:22:38;30.30;55.20
36292;DHT22;22327;51.208;6.418;2023-09-07T11:25:39;30.40;54.70
36292;DHT22;22327;51.208;6.418;2023-09-07T11:28:40;30.40;54.00
36292;DHT22;22327;51.208;6.418;2023-09-07T11:31:41;30.30;54.20
36292;DHT22;22327;51.208;6.418;2023-09-07T11:34:50;30.40;54.40
36292;DHT22;22327;51.208;6.418;2023-09-07T11:37:52;30.40;54.40
36292;DHT22;22327;51.208;6.418;2023-09-07T11:40:53;30.50;54.20
36292;DHT22;22327;51.208;6.418;2023-09-07T11:43:53;30.40;54.50
36292;DHT22;22327;51.208;6.418;2023-09-07T11:46:54;30.40;54.70
36292;DHT22;22327;51.208;6.418;2023-09-07T11:49:54;30.60;54.70
36292;DHT22;22327;51.208;6.418;2023-09-07T11:52:55;30.70;54.60
36292;DHT22;22327;51.208;6.418;2023-09-07T11:55:56;30.70;54.30
36292;DHT22;22327;51.208;6.418;2023-09-07T11:58:57;30.80;54.00
36292;DHT22;22327;51.208;6.418;2023-09-07T12:01:57;30.90;54.30
36292;DHT22;22327;51.208;6.418;2023-09-07T12:04:58;31.00;54.10
36292;DHT22;22327;51.208;6.418;2023-09-07T12:08:00;31.10;54.20
36292;DHT22;22327;51.208;6.418;2023-09-07T12:11:01;31.20;52.90
36292;DHT22;22327;51.208;6.418;2023-09-07T12:14:02;31.30;53.30
36292;DHT22;22327;51.208;6.418;2023-09-07T12:17:02;31.40;53.60
36292;DHT22;22327;51.208;6.418;2023-09-07T12:20:04;31.40;53.20
36292;DHT22;22327;51.208;6.418;2023-09-07T12:23:10;31.40;53.50
36292;DHT22;22327;51.208;6.418;2023-09-07T12:26:12;31.40;53.20
36292;DHT22;22327;51.208;6.418;2023-09-07T12:29:13;31.30;53.50
36292;DHT22;22327;51.208;6.418;2023-09-07T12:32:13;31.40;53.60
36292;DHT22;22327;51.208;6.418;2023-09-07T12:35:14;31.30;53.00
36292;DHT22;22327;51.208;6.418;2023-09-07T12:38:15;31.30;53.70
36292;DHT22;22327;51.208;6.418;2023-09-07T12:41:18;31.30;53.60
36292;DHT22;22327;51.208;6.418;2023-09-07T12:44:18;31.40;53.60
36292;DHT22;22327;51.208;6.418;2023-09-07T12:47:21;31.50;54.10
36292;DHT22;22327;51.208;6.418;2023-09-07T12:50:21;31.60;53.50
36292;DHT22;22327;51.208;6.418;2023-09-07T12:53:23;31.50;53.50
36292;DHT22;22327;51.208;6.418;2023-09-07T12:56:25;31.60;53.40
36292;DHT22;22327;51.208;6.418;2023-09-07T12:59:26;31.50;52.80
36292;DHT22;22327;51.208;6.418;2023-09-07T13:02:26;31.60;52.70
36292;DHT22;22327;51.208;6.418;2023-09-07T13:05:27;31.70;51.90
36292;DHT22;22327;51.208;6.418;2023-09-07T13:08:27;31.80;51.50
36292;DHT22;22327;51.208;6.418;2023-09-07T13:11:30;31.80;51.70
36292;DHT22;22327;51.208;6.418;2023-09-07T13:14:30;31.80;51.40
36292;DHT22;22327;51.208;6.418;2023-09-07T13:17:31;31.90;51.40
36292;DHT22;22327;51.208;6.418;2023-09-07T13:20:31;32.00;52.50
36292;DHT22;22327;51.208;6.418;2023-09-07T13:23:32;32.00;51.90
36292;DHT22;22327;51.208;6.418;2023-09-07T13:26:32;32.00;52.30
36292;DHT22;22327;51.208;6.418;2023-09-07T13:29:33;32.00;52.20
36292;DHT22;22327;51.208;6.418;2023-09-07T13:32:34;32.10;52.20
36292;DHT22;22327;51.208;6.418;2023-09-07T13:35:35;32.10;51.60
36292;DHT22;22327;51.208;6.418;2023-09-07T13:38:35;32.10;51.00
36292;DHT22;22327;51.208;6.418;2023-09-07T13:41:36;32.10;51.10
36292;DHT22;22327;51.208;6.418;2023-09-07T13:44:36;32.20;50.60
36292;DHT22;22327;51.208;6.418;2023-09-07T13:47:37;32.20;50.50
36292;DHT22;22327;51.208;6.418;2023-09-07T13:50:38;32.20;50.00
36292;DHT22;22327;51.208;6.418;2023-09-07T13:53:39;32.30;49.30
36292;DHT22;22327;51.208;6.418;2023-09-07T13:56:39;32.30;49.00
36292;DHT22;22327;51.208;6.418;2023-09-07T13:59:41;32.30;48.90
36292;DHT22;22327;51.208;6.418;2023-09-07T14:02:41;32.30;49.50
36292;DHT22;22327;51.208;6.418;2023-09-07T14:05:42;32.30;49.30
36292;DHT22;22327;51.208;6.418;2023-09-07T14:08:43;32.40;49.10
36292;DHT22;22327;51.208;6.418;2023-09-07T14:11:44;32.30;48.20
36292;DHT22;22327;51.208;6.418;2023-09-07T14:14:44;32.30;48.50
36292;DHT22;22327;51.208;6.418;2023-09-07T14:17:45;32.40;48.80
36292;DHT22;22327;51.208;6.418;2023-09-07T14:20:46;32.40;49.00
36292;DHT22;22327;51.208;6.418;2023-09-07T14:23:46;32.40;48.20
36292;DHT22;22327;51.208;6.418;2023-09-07T14:26:47;32.40;48.20
36292;DHT22;22327;51.208;6.418;2023-09-07T14:29:48;32.40;47.60
36292;DHT22;22327;51.208;6.418;2023-09-07T14:32:48;32.50;47.90
36292;DHT22;22327;51.208;6.418;2023-09-07T14:35:51;32.50;48.00
36292;DHT22;22327;51.208;6.418;2023-09-07T14:38:54;32.50;47.40
36292;DHT22;22327;51.208;6.418;2023-09-07T14:41:54;32.50;47.60
36292;DHT22;22327;51.208;6.418;2023-09-07T14:44:55;32.40;47.90
36292;DHT22;22327;51.208;6.418;2023-09-07T14:47:57;32.50;47.80
36292;DHT22;22327;51.208;6.418;2023-09-07T14:50:58;32.50;46.90
36292;DHT22;22327;51.208;6.418;2023-09-07T14:53:59;32.50;46.40
36292;DHT22;22327;51.208;6.418;2023-09-07T14:56:59;32.50;46.80
36292;DHT22;22327;51.208;6.418;2023-09-07T15:00:00;32.50;46.90
36292;DHT22;22327;51.208;6.418;2023-09-07T15:03:01;32.50;47.20
36292;DHT22;22327;51.208;6.418;2023-09-07T15:06:02;32.60;47.80
36292;DHT22;22327;51.208;6.418;2023-09-07T15:09:02;32.60;47.40
36292;DHT22;22327;51.208;6.418;2023-09-07T15:12:04;32.50;46.90
36292;DHT22;22327;51.208;6.418;2023-09-07T15:15:05;32.50;45.00
36292;DHT22;22327;51.208;6.418;2023-09-07T15:18:07;32.50;45.40
36292;DHT22;22327;51.208;6.418;2023-09-07T15:21:08;32.50;46.60
36292;DHT22;22327;51.208;6.418;2023-09-07T15:24:08;32.50;46.20
36292;DHT22;22327;51.208;6.418;2023-09-07T15:27:10;32.50;45.80
36292;DHT22;22327;51.208;6.418;2023-09-07T15:30:11;32.40;45.70
36292;DHT22;22327;51.208;6.418;2023-09-07T15:33:12;32.40;45.50
36292;DHT22;22327;51.208;6.418;2023-09-07T15:36:13;32.40;45.50
36292;DHT22;22327;51.208;6.418;2023-09-07T15:39:16;32.40;46.50
36292;DHT22;22327;51.208;6.418;2023-09-07T15:42:16;32.40;45.60
36292;DHT22;22327;51.208;6.418;2023-09-07T15:45:17;32.50;45.60
36292;DHT22;22327;51.208;6.418;2023-09-07T15:48:17;32.50;45.80
36292;DHT22;22327;51.208;6.418;2023-09-07T15:51:18;32.50;46.30
36292;DHT22;22327;51.208;6.418;2023-09-07T15:54:18;32.50;46.40
36292;DHT22;22327;51.208;6.418;2023-09-07T15:57:19;32.50;46.10
36292;DHT22;22327;51.208;6.418;2023-09-07T16:00:19;32.40;46.10
36292;DHT22;22327;51.208;6.418;2023-09-07T16:03:20;32.40;45.30
36292;DHT22;22327;51.208;6.418;2023-09-07T16:06:20;32.40;45.20
36292;DHT22;22327;51.208;6.418;2023-09-07T16:09:21;32.30;45.10
36292;DHT22;22327;51.208;6.418;2023-09-07T16:12:21;32.30;44.80
36292;DHT22;22327;51.208;6.418;2023-09-07T16:15:22;32.30;44.20
36292;DHT22;22327;51.208;6.418;2023-09-07T16:18:22;32.20;44.00
36292;DHT22;22327;51.208;6.418;2023-09-07T16:21:23;32.20;44.00
36292;DHT22;22327;51.208;6.418;2023-09-07T16:24:23;32.20;44.10
36292;DHT22;22327;51.208;6.418;2023-09-07T16:27:24;32.20;44.80
36292;DHT22;22327;51.208;6.418;2023-09-07T16:30:25;32.20;44.40
36292;DHT22;22327;51.208;6.418;2023-09-07T16:33:25;32.20;44.70
36292;DHT22;22327;51.208;6.418;2023-09-07T16:36:26;32.20;44.90
36292;DHT22;22327;51.208;6.418;2023-09-07T16:39:26;32.20;44.90
36292;DHT22;22327;51.208;6.418;2023-09-07T16:42:27;32.10;44.60
36292;DHT22;22327;51.208;6.418;2023-09-07T16:45:27;32.10;44.70
36292;DHT22;22327;51.208;6.418;2023-09-07T16:48:28;32.00;44.90
36292;DHT22;22327;51.208;6.418;2023-09-07T16:51:28;32.00;45.10
36292;DHT22;22327;51.208;6.418;2023-09-07T16:54:29;32.00;45.20
36292;DHT22;22327;51.208;6.418;2023-09-07T16:57:31;31.90;45.10
36292;DHT22;22327;51.208;6.418;2023-09-07T17:00:33;31.80;45.50
36292;DHT22;22327;51.208;6.418;2023-09-07T17:03:33;31.80;45.60
36292;DHT22;22327;51.208;6.418;2023-09-07T17:06:34;31.70;45.60
36292;DHT22;22327;51.208;6.418;2023-09-07T17:09:36;31.70;45.80
36292;DHT22;22327;51.208;6.418;2023-09-07T17:12:36;31.60;46.00
36292;DHT22;22327;51.208;6.418;2023-09-07T17:15:37;31.60;46.30
36292;DHT22;22327;51.208;6.418;2023-09-07T17:18:38;31.50;46.40
36292;DHT22;22327;51.208;6.418;2023-09-07T17:21:38;31.40;46.50
36292;DHT22;22327;51.208;6.418;2023-09-07T17:24:40;31.30;46.60
36292;DHT22;22327;51.208;6.418;2023-09-07T17:27:42;31.20;46.70
36292;DHT22;22327;51.208;6.418;2023-09-07T17:30:43;31.20;47.00
36292;DHT22;22327;51.208;6.418;2023-09-07T17:33:45;31.10;47.30
36292;DHT22;22327;51.208;6.418;2023-09-07T17:36:46;31.00;47.50
36292;DHT22;22327;51.208;6.418;2023-09-07T17:39:46;30.90;47.60
36292;DHT22;22327;51.208;6.418;2023-09-07T17:42:47;30.80;47.80
36292;DHT22;22327;51.208;6.418;2023-09-07T17:45:47;30.80;48.20
36292;DHT22;22327;51.208;6.418;2023-09-07T17:48:48;30.60;48.00
36292;DHT22;22327;51.208;6.418;2023-09-07T17:51:49;30.60;48.40
36292;DHT22;22327;51.208;6.418;2023-09-07T17:54:51;30.50;48.60
36292;DHT22;22327;51.208;6.418;2023-09-07T17:57:51;30.40;49.00
36292;DHT22;22327;51.208;6.418;2023-09-07T18:00:52;30.20;49.10
36292;DHT22;22327;51.208;6.418;2023-09-07T18:03:52;30.20;49.40
36292;DHT22;22327;51.208;6.418;2023-09-07T18:06:53;30.00;49.70
36292;DHT22;22327;51.208;6.418;2023-09-07T18:09:53;29.90;50.30
36292;DHT22;22327;51.208;6.418;2023-09-07T18:12:54;29.80;50.80
36292;DHT22;22327;51.208;6.418;2023-09-07T18:15:56;29.60;51.20
36292;DHT22;22327;51.208;6.418;2023-09-07T18:18:57;29.50;51.70
36292;DHT22;22327;51.208;6.418;2023-09-07T18:21:57;29.30;52.00
36292;DHT22;22327;51.208;6.418;2023-09-07T18:24:58;29.10;52.50
36292;DHT22;22327;51.208;6.418;2023-09-07T18:27:59;29.00;53.30
36292;DHT22;22327;51.208;6.418;2023-09-07T18:31:00;28.80;53.60
36292;DHT22;22327;51.208;6.418;2023-09-07T18:34:00;28.70;54.00
36292;DHT22;22327;51.208;6.418;2023-09-07T18:37:01;28.40;54.10
36292;DHT22;22327;51.208;6.418;2023-09-07T18:40:01;28.30;54.30
36292;DHT22;22327;51.208;6.418;2023-09-07T18:43:02;28.20;54.20
36292;DHT22;22327;51.208;6.418;2023-09-07T18:46:05;28.20;54.30
36292;DHT22;22327;51.208;6.418;2023-09-07T18:49:05;28.10;53.80
36292;DHT22;22327;51.208;6.418;2023-09-07T18:52:06;28.20;54.00
36292;DHT22;22327;51.208;6.418;2023-09-07T18:55:07;28.10;53.80
36292;DHT22;22327;51.208;6.418;2023-09-07T18:58:07;28.10;53.80
36292;DHT22;22327;51.208;6.418;2023-09-07T19:01:16;28.10;53.60
36292;DHT22;22327;51.208;6.418;2023-09-07T19:04:17;28.10;53.60
36292;DHT22;22327;51.208;6.418;2023-09-07T19:07:17;28.10;53.70